createdAt,value
2023-01-17T00:01:55.586Z,94438.94
2023-01-17T00:04:40.783Z,94392.19
2023-01-17T00:07:29.522Z,94435.72
2023-01-17T00:09:58.259Z,94402.63
2023-01-17T00:12:27.501Z,94458.56
2023-01-17T00:14:55.972Z,94456.16
2023-01-17T00:17:24.357Z,94453.00
2023-01-17T00:20:09.684Z,94347.69
2023-01-17T00:22:55.366Z,94438.03
2023-01-17T00:25:43.710Z,94385.06
2023-01-17T00:28:10.355Z,94449.59
2023-01-17T00:30:38.487Z,94483.22
2023-01-17T00:33:05.696Z,94475.41
2023-01-17T00:35:33.444Z,94465.78
2023-01-17T00:38:10.978Z,94462.81
2023-01-17T00:40:39.560Z,94464.44
2023-01-17T00:43:26.232Z,94473.81
2023-01-17T00:46:12.161Z,94294.38
2023-01-17T00:48:57.969Z,94485.84
2023-01-17T00:51:44.719Z,94496.66
2023-01-17T00:54:29.918Z,94473.25
2023-01-17T00:57:15.708Z,94491.47
2023-01-17T01:00:01.194Z,94472.88
2023-01-17T01:02:47.163Z,94503.09
2023-01-17T01:05:33.297Z,94500.88
2023-01-17T01:08:19.121Z,94461.09
2023-01-17T01:11:05.822Z,94518.50
2023-01-17T01:13:52.123Z,94525.69
2023-01-17T01:16:37.853Z,94533.31
2023-01-17T01:19:24.216Z,94535.09
2023-01-17T01:22:09.513Z,94545.50
2023-01-17T01:24:54.758Z,94527.09
2023-01-17T01:27:39.939Z,94527.91
2023-01-17T01:30:25.689Z,94550.09
2023-01-17T01:33:10.966Z,94536.28
2023-01-17T01:35:40.430Z,94413.88
2023-01-17T01:38:07.243Z,94535.31
2023-01-17T01:40:33.941Z,94527.69
2023-01-17T01:43:06.039Z,94530.69
2023-01-17T01:45:33.007Z,94439.50
2023-01-17T01:48:07.244Z,94443.88
2023-01-17T01:50:36.829Z,94423.88
2023-01-17T01:53:05.878Z,94547.09
2023-01-17T01:55:39.453Z,94556.91
2023-01-17T01:58:15.304Z,94569.53
2023-01-17T02:00:42.468Z,94436.28
2023-01-17T02:03:14.693Z,94604.75
2023-01-17T02:05:43.711Z,94523.72
2023-01-17T02:08:19.960Z,94570.50
2023-01-17T02:10:47.713Z,94433.06
2023-01-17T02:13:16.807Z,94574.53
2023-01-17T02:15:58.719Z,94579.53
2023-01-17T02:18:43.734Z,94573.31
2023-01-17T02:21:13.261Z,94570.13
2023-01-17T02:23:44.353Z,94575.50
2023-01-17T02:26:19.900Z,94557.88
2023-01-17T02:29:24.565Z,94582.28
2023-01-17T02:32:05.193Z,94576.88
2023-01-17T02:34:55.862Z,94578.28
2023-01-17T02:37:45.796Z,94584.69
2023-01-17T02:40:24.825Z,94586.28
2023-01-17T02:42:58.800Z,94575.03
2023-01-17T02:45:25.475Z,94590.66
2023-01-17T02:47:52.248Z,94577.03
2023-01-17T02:50:23.147Z,94577.63
2023-01-17T02:52:55.688Z,94596.25
2023-01-17T02:55:34.521Z,94590.22
2023-01-17T02:58:19.484Z,94588.00
2023-01-17T03:01:09.007Z,94461.84
2023-01-17T03:03:54.168Z,94565.53
2023-01-17T03:06:27.444Z,94591.75
2023-01-17T03:08:54.643Z,94461.13
2023-01-17T03:11:21.349Z,94599.88
2023-01-17T03:13:48.078Z,94490.06
2023-01-17T03:16:19.898Z,94609.63
2023-01-17T03:18:46.829Z,94605.75
2023-01-17T03:21:13.566Z,94377.75
2023-01-17T03:23:43.117Z,94609.75
2023-01-17T03:26:09.854Z,94471.91
2023-01-17T03:28:36.607Z,94593.53
2023-01-17T03:31:03.359Z,94617.97
2023-01-17T03:33:30.309Z,94463.72
2023-01-17T03:36:00.299Z,94450.44
2023-01-17T03:38:32.184Z,94629.00
2023-01-17T03:41:02.279Z,94583.34
2023-01-17T03:43:29.001Z,94430.41
2023-01-17T03:46:05.527Z,94626.63
2023-01-17T03:48:32.497Z,94611.22
2023-01-17T03:50:59.325Z,94622.25
2023-01-17T03:53:26.125Z,94649.78
2023-01-17T03:55:52.789Z,94604.56
2023-01-17T03:58:20.181Z,94562.25
2023-01-17T04:00:46.940Z,94628.19
2023-01-17T04:03:15.846Z,94490.63
2023-01-17T04:05:42.556Z,94632.13
2023-01-17T04:08:09.350Z,94613.88
2023-01-17T04:10:36.066Z,94612.09
2023-01-17T04:13:02.759Z,94616.88
2023-01-17T04:15:29.983Z,94628.25
2023-01-17T04:17:57.067Z,94492.34
2023-01-17T04:20:36.050Z,94638.56
2023-01-17T04:23:03.005Z,94647.13
2023-01-17T04:25:32.574Z,94634.41
2023-01-17T04:28:01.209Z,94625.16
2023-01-17T04:30:28.942Z,94640.41
2023-01-17T04:32:56.038Z,94557.94
2023-01-17T04:35:23.071Z,94532.28
2023-01-17T04:37:50.108Z,94629.91
2023-01-17T04:40:17.036Z,94589.97
2023-01-17T04:42:45.341Z,94653.16
2023-01-17T04:45:12.955Z,94655.13
2023-01-17T04:47:39.881Z,94514.88
2023-01-17T04:50:07.431Z,94646.53
2023-01-17T04:52:34.134Z,94644.81
2023-01-17T04:55:02.235Z,94655.00
2023-01-17T04:57:29.028Z,94676.44
2023-01-17T04:59:55.692Z,94648.91
2023-01-17T05:02:22.428Z,94681.13
2023-01-17T05:04:49.205Z,94671.13
2023-01-17T05:07:15.879Z,94660.69
2023-01-17T05:09:43.928Z,94680.41
2023-01-17T05:12:10.939Z,94688.97
2023-01-17T05:14:37.654Z,94518.34
2023-01-17T05:17:04.318Z,94663.41
2023-01-17T05:19:30.988Z,94542.84
2023-01-17T05:22:04.345Z,94670.81
2023-01-17T05:24:31.683Z,94696.25
2023-01-17T05:27:03.304Z,94701.19
2023-01-17T05:29:30.897Z,94703.09
2023-01-17T05:31:57.913Z,94704.00
2023-01-17T05:34:24.743Z,94606.94
2023-01-17T05:36:51.748Z,94713.59
2023-01-17T05:39:20.107Z,94713.59
2023-01-17T05:41:46.758Z,94712.53
2023-01-17T05:44:15.270Z,94712.91
2023-01-17T05:46:42.447Z,94713.72
2023-01-17T05:49:09.500Z,94709.13
2023-01-17T05:51:37.937Z,94716.91
2023-01-17T05:54:06.364Z,94575.94
2023-01-17T05:56:33.942Z,94678.00
2023-01-17T05:59:00.721Z,94724.94
2023-01-17T06:01:27.670Z,94729.78
2023-01-17T06:03:54.444Z,94727.38
2023-01-17T06:06:21.815Z,94678.25
2023-01-17T06:08:48.487Z,94678.19
2023-01-17T06:11:15.260Z,94730.81
2023-01-17T06:13:41.935Z,94727.44
2023-01-17T06:16:08.777Z,94715.13
2023-01-17T06:18:35.570Z,94733.16
2023-01-17T06:21:02.422Z,94653.38
2023-01-17T06:23:29.081Z,94747.72
2023-01-17T06:25:55.774Z,94733.19
2023-01-17T06:28:23.295Z,94617.88
2023-01-17T06:30:50.164Z,94747.84
2023-01-17T06:33:16.862Z,94746.94
2023-01-17T06:35:50.969Z,94741.88
2023-01-17T06:38:18.122Z,94757.94
2023-01-17T06:40:44.768Z,94757.31
2023-01-17T06:43:11.474Z,94766.69
2023-01-17T06:45:38.155Z,94776.88
2023-01-17T06:48:05.455Z,94781.50
2023-01-17T06:50:33.551Z,94784.56
2023-01-17T06:53:05.757Z,94744.28
2023-01-17T06:55:36.215Z,94653.66
2023-01-17T06:58:03.295Z,94772.41
2023-01-17T07:00:40.366Z,94788.94
2023-01-17T07:03:17.050Z,94604.75
2023-01-17T07:05:43.756Z,94790.00
2023-01-17T07:08:10.633Z,94785.44
2023-01-17T07:10:37.298Z,94777.13
2023-01-17T07:13:03.966Z,94780.53
2023-01-17T07:15:30.712Z,94786.69
2023-01-17T07:18:00.331Z,94788.38
2023-01-17T07:20:27.078Z,94727.94
2023-01-17T07:22:53.768Z,94756.66
2023-01-17T07:25:20.518Z,94644.47
2023-01-17T07:27:47.192Z,94788.28
2023-01-17T07:30:14.329Z,94791.31
2023-01-17T07:32:41.072Z,94786.50
2023-01-17T07:35:08.004Z,94781.31
2023-01-17T07:37:34.700Z,94752.47
2023-01-17T07:40:03.076Z,94590.56
2023-01-17T07:42:29.827Z,94648.13
2023-01-17T07:44:56.484Z,94648.75
2023-01-17T07:47:24.856Z,94789.81
2023-01-17T07:49:51.573Z,94789.25
2023-01-17T07:52:18.453Z,94739.97
2023-01-17T07:54:45.176Z,94758.50
2023-01-17T07:57:12.715Z,94628.31
2023-01-17T07:59:39.509Z,94771.34
2023-01-17T08:02:06.294Z,94749.53
2023-01-17T08:04:35.382Z,94653.25
2023-01-17T08:07:02.314Z,94634.16
2023-01-17T08:09:31.052Z,94759.31
2023-01-17T08:11:57.760Z,94767.78
2023-01-17T08:14:25.045Z,94747.16
2023-01-17T08:16:51.788Z,94763.47
2023-01-17T08:19:18.889Z,94737.28
2023-01-17T08:21:45.669Z,94658.59
2023-01-17T08:24:13.905Z,94745.00
2023-01-17T08:26:41.151Z,94723.50
2023-01-17T08:29:08.001Z,94720.03
2023-01-17T08:31:35.443Z,94681.44
2023-01-17T08:34:03.080Z,94524.97
2023-01-17T08:36:31.270Z,94732.41
2023-01-17T08:38:58.909Z,94746.91
2023-01-17T08:41:27.854Z,94638.34
2023-01-17T08:43:56.583Z,94741.41
2023-01-17T08:46:24.327Z,94556.38
2023-01-17T08:49:02.895Z,94751.53
2023-01-17T08:51:31.640Z,94753.03
2023-01-17T08:53:59.146Z,94748.16
2023-01-17T08:56:28.424Z,94719.84
2023-01-17T08:58:55.125Z,94529.97
2023-01-17T09:01:21.939Z,94760.38
2023-01-17T09:03:49.898Z,94763.25
2023-01-17T09:06:17.318Z,94761.75
2023-01-17T09:08:47.065Z,94651.53
2023-01-17T09:11:16.469Z,94757.47
2023-01-17T09:13:43.592Z,94679.19
2023-01-17T09:16:10.838Z,94640.44
2023-01-17T09:18:37.729Z,94764.06
2023-01-17T09:21:16.404Z,94763.88
2023-01-17T09:23:43.828Z,94428.34
2023-01-17T09:26:21.455Z,94748.66
2023-01-17T09:28:49.007Z,94766.47
2023-01-17T09:31:17.594Z,94726.91
2023-01-17T09:33:44.737Z,94612.69
2023-01-17T09:36:11.659Z,94763.53
2023-01-17T09:38:40.136Z,94765.56
2023-01-17T09:41:32.757Z,94782.13
2023-01-17T09:44:28.647Z,94772.56
2023-01-17T09:47:11.923Z,94743.81
2023-01-17T09:49:43.466Z,94750.06
2023-01-17T09:52:13.555Z,94762.16
2023-01-17T09:54:46.588Z,94769.19
2023-01-17T09:57:24.410Z,94760.06
2023-01-17T10:00:28.474Z,94509.34
2023-01-17T10:03:17.051Z,94762.44
2023-01-17T10:05:58.674Z,94751.50
2023-01-17T10:08:28.341Z,94745.50
2023-01-17T10:11:17.808Z,94745.94
2023-01-17T10:13:56.576Z,94747.56
2023-01-17T10:16:42.039Z,94745.31
2023-01-17T10:19:35.652Z,94745.75
2023-01-17T10:22:31.154Z,94694.44
2023-01-17T10:25:20.340Z,94747.22
2023-01-17T10:28:05.073Z,94738.03
2023-01-17T10:30:49.085Z,94710.38
2023-01-17T10:33:20.807Z,94612.66
2023-01-17T10:35:57.031Z,94602.28
2023-01-17T10:38:36.582Z,94723.72
2023-01-17T10:41:24.394Z,94714.91
2023-01-17T10:44:15.711Z,94711.72
2023-01-17T10:46:47.771Z,94550.50
2023-01-17T10:49:18.571Z,94610.34
2023-01-17T10:52:03.974Z,94690.03
2023-01-17T10:54:43.296Z,94679.78
2023-01-17T10:57:18.696Z,94692.25
2023-01-17T10:59:45.536Z,94650.75
2023-01-17T11:02:26.197Z,94667.78
2023-01-17T11:04:55.728Z,94679.63
2023-01-17T11:07:27.129Z,94674.00
2023-01-17T11:09:57.596Z,94660.13
2023-01-17T11:12:44.066Z,94652.09
2023-01-17T11:15:10.704Z,94645.63
2023-01-17T11:17:48.954Z,94633.81
2023-01-17T11:20:22.851Z,94620.00
2023-01-17T11:23:15.879Z,94644.22
2023-01-17T11:26:11.262Z,94636.38
2023-01-17T11:28:42.693Z,94594.94
2023-01-17T11:31:16.728Z,94635.94
2023-01-17T11:34:05.305Z,94463.69
2023-01-17T11:36:32.726Z,94625.50
2023-01-17T11:39:22.602Z,94639.38
2023-01-17T11:41:49.478Z,94526.53
2023-01-17T11:44:32.819Z,94637.50
2023-01-17T11:47:11.589Z,94611.25
2023-01-17T11:49:40.198Z,94632.56
2023-01-17T11:52:27.274Z,94561.19
2023-01-17T11:54:55.388Z,94611.91
2023-01-17T11:57:26.734Z,94602.69
2023-01-17T11:59:59.737Z,94614.69
2023-01-17T12:02:31.993Z,94618.31
2023-01-17T12:05:18.465Z,94612.66
2023-01-17T12:08:06.196Z,94608.47
2023-01-17T12:10:53.317Z,94566.41
2023-01-17T12:14:01.519Z,94592.00
2023-01-17T12:16:33.213Z,94608.03
2023-01-17T12:19:49.012Z,94583.97
2023-01-17T12:22:27.882Z,94585.00
2023-01-17T12:25:03.691Z,94574.16
2023-01-17T12:27:30.358Z,94569.38
2023-01-17T12:30:09.017Z,94562.53
2023-01-17T12:32:40.712Z,94554.34
2023-01-17T12:35:19.548Z,94558.56
2023-01-17T12:38:04.427Z,94553.41
2023-01-17T12:40:49.774Z,94567.69
2023-01-17T12:43:25.791Z,94572.31
2023-01-17T12:45:54.699Z,94558.97
2023-01-17T12:48:23.238Z,94571.91
2023-01-17T12:50:57.299Z,94467.78
2023-01-17T12:53:39.484Z,94568.53
2023-01-17T12:56:24.972Z,94291.22
2023-01-17T12:59:07.674Z,94554.34
2023-01-17T13:01:44.520Z,94461.28
2023-01-17T13:04:26.659Z,94520.72
2023-01-17T13:06:59.657Z,94591.75
2023-01-17T13:09:37.062Z,94597.75
2023-01-17T13:12:09.983Z,94465.56
2023-01-17T13:14:39.854Z,94580.34
2023-01-17T13:17:37.798Z,94528.09
2023-01-17T13:20:22.690Z,94560.06
2023-01-17T13:22:51.639Z,94550.66
2023-01-17T13:25:27.245Z,94553.63
2023-01-17T13:28:05.237Z,94553.03
2023-01-17T13:30:50.349Z,94553.78
2023-01-17T13:33:48.531Z,94555.81
2023-01-17T13:36:30.311Z,94555.25
2023-01-17T13:39:17.730Z,94435.78
2023-01-17T13:42:02.442Z,94554.13
2023-01-17T13:44:32.156Z,94547.88
2023-01-17T13:47:08.131Z,94542.69
2023-01-17T13:49:42.671Z,94539.09
2023-01-17T13:52:23.115Z,94537.34
2023-01-17T13:54:58.342Z,94514.94
2023-01-17T13:57:32.879Z,94536.34
2023-01-17T14:00:36.069Z,94499.22
2023-01-17T14:03:14.662Z,94532.81
2023-01-17T14:05:41.391Z,94540.78
2023-01-17T14:08:20.606Z,94557.03
2023-01-17T14:11:03.955Z,94535.97
2023-01-17T14:13:40.049Z,94408.63
2023-01-17T14:16:21.999Z,94526.97
2023-01-17T14:18:49.630Z,94466.19
2023-01-17T14:21:23.963Z,94522.59
2023-01-17T14:23:57.648Z,94461.00
2023-01-17T14:26:32.350Z,94449.81
2023-01-17T14:29:19.653Z,94505.78
2023-01-17T14:31:47.158Z,94508.41
2023-01-17T14:34:14.109Z,94366.28
2023-01-17T14:36:40.825Z,94334.72
2023-01-17T14:39:22.264Z,94500.22
2023-01-17T14:41:49.072Z,94472.00
2023-01-17T14:44:15.847Z,94492.41
2023-01-17T14:46:47.959Z,94496.03
2023-01-17T14:49:26.008Z,94353.50
2023-01-17T14:52:00.232Z,94435.47
2023-01-17T14:54:27.780Z,94369.72
2023-01-17T14:57:29.631Z,94484.47
2023-01-17T15:00:21.283Z,94479.47
2023-01-17T15:02:48.607Z,94491.47
2023-01-17T15:05:17.372Z,94347.13
2023-01-17T15:07:46.830Z,94460.69
2023-01-17T15:10:16.102Z,94463.06
2023-01-17T15:12:46.692Z,94473.50
2023-01-17T15:15:30.371Z,94317.34
2023-01-17T15:18:25.479Z,94462.09
2023-01-17T15:21:02.523Z,94445.69
2023-01-17T15:23:37.136Z,94438.69
2023-01-17T15:26:06.574Z,94334.50
2023-01-17T15:28:37.116Z,94441.88
2023-01-17T15:31:17.106Z,94283.53
2023-01-17T15:33:47.107Z,94442.06
2023-01-17T15:36:26.208Z,94259.34
2023-01-17T15:39:00.232Z,94315.28
2023-01-17T15:41:31.774Z,94330.84
2023-01-17T15:43:58.906Z,94196.09
2023-01-17T15:46:44.536Z,94453.59
2023-01-17T15:49:23.155Z,94441.19
2023-01-17T15:51:54.384Z,94450.56
2023-01-17T15:54:34.674Z,94456.75
2023-01-17T15:57:27.238Z,94430.31
2023-01-17T16:00:32.667Z,94444.31
2023-01-17T16:02:59.769Z,94445.28
2023-01-17T16:05:31.101Z,94438.47
2023-01-17T16:08:04.398Z,94475.75
2023-01-17T16:10:37.214Z,94442.19
2023-01-17T16:13:05.954Z,94441.38
2023-01-17T16:15:35.347Z,94438.53
2023-01-17T16:18:11.848Z,94444.31
2023-01-17T16:20:44.363Z,94442.47
2023-01-17T16:23:11.150Z,94321.09
2023-01-17T16:25:38.497Z,94346.16
2023-01-17T16:28:06.225Z,94450.72
2023-01-17T16:30:33.628Z,94369.06
2023-01-17T16:33:00.601Z,94419.09
2023-01-17T16:35:31.285Z,94378.91
2023-01-17T16:37:59.136Z,94358.88
2023-01-17T16:40:28.566Z,94419.72
2023-01-17T16:42:56.293Z,94422.25
2023-01-17T16:45:25.987Z,94433.25
2023-01-17T16:47:54.345Z,94433.16
2023-01-17T16:50:25.115Z,94433.94
2023-01-17T16:52:53.261Z,94437.88
2023-01-17T16:55:25.290Z,94435.22
2023-01-17T16:57:54.233Z,94425.63
2023-01-17T17:00:22.721Z,94246.47
2023-01-17T17:02:50.719Z,94423.50
2023-01-17T17:05:18.148Z,94419.09
2023-01-17T17:07:45.998Z,94409.66
2023-01-17T17:10:14.673Z,94416.97
2023-01-17T17:12:41.486Z,94396.63
2023-01-17T17:15:09.005Z,94279.63
2023-01-17T17:17:37.096Z,94404.50
2023-01-17T17:20:05.096Z,94404.81
2023-01-17T17:22:32.589Z,94402.56
2023-01-17T17:24:59.302Z,94397.41
2023-01-17T17:27:28.695Z,94399.97
2023-01-17T17:29:55.609Z,94410.50
2023-01-17T17:32:22.491Z,94402.94
2023-01-17T17:34:51.085Z,94262.31
2023-01-17T17:37:17.999Z,94406.59
2023-01-17T17:39:45.370Z,94409.56
2023-01-17T17:42:12.201Z,94405.13
2023-01-17T17:44:38.878Z,94414.78
2023-01-17T17:47:08.340Z,94377.81
2023-01-17T17:49:35.126Z,94362.72
2023-01-17T17:52:06.160Z,94424.28
2023-01-17T17:54:33.024Z,94421.09
2023-01-17T17:56:59.735Z,94441.66
2023-01-17T17:59:26.942Z,94418.59
2023-01-17T18:01:53.656Z,94428.28
2023-01-17T18:04:21.637Z,94459.66
2023-01-17T18:06:48.391Z,94216.38
2023-01-17T18:09:16.645Z,94437.19
2023-01-17T18:11:43.904Z,94293.69
2023-01-17T18:14:13.787Z,94434.63
2023-01-17T18:16:43.750Z,94436.59
2023-01-17T18:19:17.300Z,94414.53
2023-01-17T18:21:44.477Z,94423.38
2023-01-17T18:24:13.518Z,94362.69
2023-01-17T18:27:06.561Z,94441.91
2023-01-17T18:29:33.312Z,94435.75
2023-01-17T18:31:59.975Z,94416.94
2023-01-17T18:34:29.430Z,94440.41
2023-01-17T18:36:57.050Z,94275.13
2023-01-17T18:39:26.500Z,94457.22
2023-01-17T18:41:54.032Z,94459.72
2023-01-17T18:44:22.142Z,94277.53
2023-01-17T18:46:50.373Z,94252.06
2023-01-17T18:49:19.301Z,94447.16
2023-01-17T18:51:50.582Z,94360.66
2023-01-17T18:54:18.463Z,94471.81
2023-01-17T18:56:45.281Z,94480.59
2023-01-17T18:59:14.105Z,94469.94
2023-01-17T19:01:44.790Z,94368.97
2023-01-17T19:04:13.586Z,94477.22
2023-01-17T19:06:43.034Z,94477.22
2023-01-17T19:09:12.404Z,94476.25
2023-01-17T19:11:39.491Z,94317.03
2023-01-17T19:14:07.218Z,94479.13
2023-01-17T19:16:39.215Z,94478.56
2023-01-17T19:19:08.443Z,94464.22
2023-01-17T19:21:35.559Z,94472.97
2023-01-17T19:24:02.876Z,94475.00
2023-01-17T19:26:30.057Z,94453.88
2023-01-17T19:29:03.782Z,94476.53
2023-01-17T19:31:32.088Z,94342.34
2023-01-17T19:33:59.729Z,94479.56
2023-01-17T19:36:33.853Z,94528.31
2023-01-17T19:39:05.719Z,94438.28
2023-01-17T19:41:35.175Z,94489.00
2023-01-17T19:44:08.052Z,94462.34
2023-01-17T19:46:35.452Z,94467.25
2023-01-17T19:49:03.644Z,94481.06
2023-01-17T19:51:30.457Z,94466.19
2023-01-17T19:53:59.882Z,94498.53
2023-01-17T19:56:27.879Z,94486.88
2023-01-17T19:58:54.767Z,94491.03
2023-01-17T20:01:28.801Z,94480.88
2023-01-17T20:03:58.046Z,94487.22
2023-01-17T20:06:29.054Z,94486.69
2023-01-17T20:08:56.207Z,94487.28
2023-01-17T20:11:24.867Z,94486.31
2023-01-17T20:13:54.304Z,94490.69
2023-01-17T20:16:21.981Z,94488.47
2023-01-17T20:18:49.530Z,94333.91
2023-01-17T20:21:17.346Z,94494.97
2023-01-17T20:23:47.005Z,94461.81
2023-01-17T20:26:29.696Z,94483.84
2023-01-17T20:28:56.705Z,94367.81
2023-01-17T20:31:25.769Z,94434.47
2023-01-17T20:33:54.591Z,94494.00
2023-01-17T20:36:26.873Z,94347.41
2023-01-17T20:38:54.522Z,94490.59
2023-01-17T20:41:28.572Z,94499.63
2023-01-17T20:43:57.765Z,94494.34
2023-01-17T20:46:31.405Z,94484.00
2023-01-17T20:48:58.364Z,94484.00
2023-01-17T20:51:27.019Z,94479.44
2023-01-17T20:53:56.660Z,94474.72
2023-01-17T20:56:24.429Z,94421.34
2023-01-17T20:58:52.414Z,94480.53
2023-01-17T21:01:21.179Z,94476.19
2023-01-17T21:03:51.587Z,94476.19
2023-01-17T21:06:19.599Z,94481.63
2023-01-17T21:08:47.451Z,94477.91
2023-01-17T21:11:17.211Z,94479.66
2023-01-17T21:13:44.352Z,94320.88
2023-01-17T21:16:14.246Z,94467.97
2023-01-17T21:18:41.584Z,94463.75
2023-01-17T21:21:13.968Z,94402.25
2023-01-17T21:23:42.479Z,94406.66
2023-01-17T21:26:12.143Z,94454.69
2023-01-17T21:28:40.965Z,94453.72
2023-01-17T21:31:23.159Z,94448.63
2023-01-17T21:33:59.076Z,94375.50
2023-01-17T21:36:29.336Z,94445.78
2023-01-17T21:38:57.871Z,94445.97
2023-01-17T21:41:33.562Z,94446.59
2023-01-17T21:44:04.928Z,94448.75
2023-01-17T21:46:31.861Z,94446.34
2023-01-17T21:48:58.615Z,94447.31
2023-01-17T21:51:45.582Z,94441.78
2023-01-17T21:54:12.409Z,94350.59
2023-01-17T21:56:57.814Z,94451.03
2023-01-17T21:59:24.508Z,94454.97
2023-01-17T22:01:51.278Z,94452.75
2023-01-17T22:04:17.999Z,94432.09
2023-01-17T22:06:44.655Z,94431.53
2023-01-17T22:09:11.427Z,94181.38
2023-01-17T22:11:38.128Z,94435.13
2023-01-17T22:14:05.285Z,94331.03
2023-01-17T22:16:32.321Z,94459.72
2023-01-17T22:18:59.323Z,94470.50
2023-01-17T22:21:28.422Z,94468.34
2023-01-17T22:23:58.746Z,94431.75
2023-01-17T22:26:30.274Z,94299.16
2023-01-17T22:29:00.774Z,94461.81
2023-01-17T22:31:28.225Z,94466.28
2023-01-17T22:34:02.510Z,94451.47
2023-01-17T22:36:31.955Z,94328.22
2023-01-17T22:38:58.772Z,94460.97
2023-01-17T22:41:31.320Z,94491.47
2023-01-17T22:43:59.903Z,94477.63
2023-01-17T22:46:30.307Z,94479.84
2023-01-17T22:48:57.440Z,94479.50
2023-01-17T22:51:25.307Z,94325.69
2023-01-17T22:53:57.642Z,94381.25
2023-01-17T22:56:30.107Z,94442.06
2023-01-17T22:58:58.982Z,94474.19
2023-01-17T23:01:31.364Z,94232.63
2023-01-17T23:04:03.740Z,94476.22
2023-01-17T23:06:33.237Z,94477.47
2023-01-17T23:09:03.402Z,94457.03
2023-01-17T23:11:46.200Z,94476.72
2023-01-17T23:14:30.624Z,94471.47
2023-01-17T23:17:21.159Z,94460.75
2023-01-17T23:19:51.066Z,94371.44
2023-01-17T23:22:27.117Z,94429.25
2023-01-17T23:25:12.158Z,94489.41
2023-01-17T23:27:59.938Z,94489.41
2023-01-17T23:30:37.471Z,94437.69
2023-01-17T23:33:10.207Z,94354.56
2023-01-17T23:35:42.054Z,94413.47
2023-01-17T23:38:26.377Z,94486.63
2023-01-17T23:41:12.447Z,94177.91
2023-01-17T23:43:39.149Z,94491.44
2023-01-17T23:46:05.922Z,94465.19
2023-01-17T23:48:32.599Z,94487.63
2023-01-17T23:51:09.670Z,94326.56
2023-01-17T23:53:38.001Z,94486.84
2023-01-17T23:56:18.494Z,94462.59
2023-01-17T23:58:45.419Z,94484.63
